Terminal Aerodrome Forecast
Issued by NWS Sioux Falls, SD

Home | Current Version | Previous Version | Graphics & Text | Print | Product List | Glossary Off
Versions: 1 2 3 4 5 6 7 8 9 10 11 12 13 14 15 16

000
FTUS43 KFSD 191720
TAFSUX
TAF
KSUX 191720Z 1918/2018 06014G21KT P6SM VCSH OVC010
     FM192000 06013KT P6SM OVC015
     FM200100 04013KT 5SM -SHRA OVC030
     FM200600 04011KT 6SM SHRA OVC010
     FM200900 03010KT P6SM SHRA OVC008
     FM201200 01010KT 6SM -SHRA OVC008=

USA.gov is the U.S. government's official web portal to all federal, state and local government web resources and services.